Hlavní strana
METAR-TAF:

METAR-TAF

Letiště :

Aktau, Kazachstán

zeměpisná šířka: 43-52-12N, zeměpisná délka: 051-06E, výška: 22 m

Aktuální stav počasí

Zpráva byla vytvořena před 38 minutami, v 03:00 UTC
Severoseverozápadní vítr 10 kt
Teplota 1°C
Vlhkost vzduchu 100%
Tlak 1012 hPa
Viditelnost: 9000 m
Oblačno až skoro zataženo ve výšce 2000 ft, Cumulonimbus.
Zataženo ve výšce 4000 ft
slabé sněhové přeháňky

METAR: UATE 170300Z 33005MPS 9000 -SHSN BKN020CB OVC040 01/01 Q1012 R30/220155 NOSIG RMK QFE757/1010

Čas: 08:38 (03:38 UTC)

Předpověď počasí

Zpráva byla vytvořena před 4 hodinami a 39 minutami, v 22:59 UTC
Předpověď platná od 17 v 00 UTC do 17 v 24 UTC
Severozápadní vítr 12 kt s nárazy do 23 kt
Viditelnost: 6000 m
Oblačno až skoro zataženo ve výšce 1000 ft, Cumulonimbus.
Dočasný
od 17 v 00 UTC do 17 v 06 UTC
slabé sněhové přeháňky, déšť

TAF: UATE 162259Z 1700/1724 31006G12MPS 6000 BKN010CB TX02/1710Z TN00/1702Z TEMPO 1700/1706 -SHSNRA

Stav a předpovědi počasí z více než 4 000 letišť (zprávy METAR a TAF).

Červené a žluté tečky na mapě představují dostupné meteorologické stanice.

Když kurzor umístíte na tečku, zobrazí se název stanice.

Pak kliknutím zobrazíte stav a předpověď počasí.

Chcete-li změnit mapu, kliknutím na zelené tlačítko se znaménkem +mapu přiblížíte, kliknutím na zelené tlačítko se znaménkem – mapu oddálíte a kliknutím na zelené šipky přejdete na sousední mapy.


METAR-TAF: